createdAt,value
2023-01-17T00:02:03.709Z,1.00
2023-01-17T00:04:48.927Z,1.10
2023-01-17T00:07:36.014Z,1.45
2023-01-17T00:10:07.298Z,1.10
2023-01-17T00:12:35.719Z,1.48
2023-01-17T00:15:05.641Z,1.53
2023-01-17T00:17:33.713Z,1.20
2023-01-17T00:20:22.183Z,1.20
2023-01-17T00:23:07.538Z,1.15
2023-01-17T00:25:56.012Z,1.40
2023-01-17T00:28:23.198Z,1.20
2023-01-17T00:30:51.364Z,1.13
2023-01-17T00:33:18.362Z,1.40
2023-01-17T00:35:44.976Z,1.30
2023-01-17T00:38:13.129Z,1.92
2023-01-17T00:40:42.161Z,1.02
2023-01-17T00:43:28.531Z,1.27
2023-01-17T00:46:15.480Z,2.22
2023-01-17T00:49:01.375Z,0.98
2023-01-17T00:51:48.241Z,1.02
2023-01-17T00:54:34.215Z,1.27
2023-01-17T00:57:20.008Z,1.70
2023-01-17T01:00:06.341Z,1.30
2023-01-17T01:02:54.161Z,1.40
2023-01-17T01:05:39.559Z,1.63
2023-01-17T01:08:40.222Z,1.92
2023-01-17T01:11:27.876Z,1.92
2023-01-17T01:14:13.265Z,2.05
2023-01-17T01:16:58.686Z,2.50
2023-01-17T01:19:45.529Z,2.40
2023-01-17T01:22:31.440Z,2.67
2023-01-17T01:25:16.994Z,2.95
2023-01-17T01:28:02.363Z,3.53
2023-01-17T01:30:47.831Z,3.42
2023-01-17T01:33:18.829Z,3.63
2023-01-17T01:35:51.871Z,3.70
2023-01-17T01:38:20.995Z,2.92
2023-01-17T01:40:50.740Z,3.67
2023-01-17T01:43:20.681Z,3.10
2023-01-17T01:45:52.872Z,4.03
2023-01-17T01:48:30.506Z,3.10
2023-01-17T01:51:00.886Z,3.45
2023-01-17T01:53:29.735Z,2.50
2023-01-17T01:55:57.583Z,2.63
2023-01-17T01:58:28.440Z,3.22
2023-01-17T02:00:56.270Z,3.08
2023-01-17T02:03:29.864Z,2.85
2023-01-17T02:06:05.251Z,3.65
2023-01-17T02:08:33.833Z,3.67
2023-01-17T02:11:01.720Z,2.83
2023-01-17T02:13:31.370Z,3.13
2023-01-17T02:16:04.823Z,2.83
2023-01-17T02:18:41.079Z,3.00
2023-01-17T02:21:23.556Z,2.75
2023-01-17T02:24:38.252Z,2.83
2023-01-17T02:27:12.089Z,2.70
2023-01-17T02:30:19.708Z,2.33
2023-01-17T02:32:56.551Z,2.75
2023-01-17T02:35:33.715Z,2.83
2023-01-17T02:38:09.370Z,3.00
2023-01-17T02:40:41.458Z,2.85
2023-01-17T02:43:12.696Z,3.03
2023-01-17T02:45:40.454Z,2.85
2023-01-17T02:48:12.176Z,2.70
2023-01-17T02:50:55.457Z,2.88
2023-01-17T02:53:34.495Z,3.03
2023-01-17T02:56:11.536Z,3.42
2023-01-17T02:58:53.376Z,3.42
2023-01-17T03:01:30.105Z,2.88
2023-01-17T03:04:04.463Z,2.88
2023-01-17T03:06:36.505Z,3.70
2023-01-17T03:09:05.592Z,3.58
2023-01-17T03:11:34.342Z,3.50
2023-01-17T03:14:02.204Z,3.85
2023-01-17T03:16:33.086Z,3.80
2023-01-17T03:19:02.509Z,4.25
2023-01-17T03:23:57.937Z,3.72
2023-01-17T03:26:25.816Z,3.70
2023-01-17T03:28:53.553Z,3.20
2023-01-17T03:31:21.317Z,3.05
2023-01-17T03:33:49.114Z,3.83
2023-01-17T03:36:19.260Z,3.55
2023-01-17T03:38:46.964Z,3.80
2023-01-17T03:41:14.721Z,3.38
2023-01-17T03:43:42.495Z,4.03
2023-01-17T03:46:20.996Z,3.47
2023-01-17T03:48:49.241Z,3.70
2023-01-17T03:51:18.406Z,3.00
2023-01-17T03:53:47.397Z,3.67
2023-01-17T03:56:15.442Z,3.75
2023-01-17T03:58:43.529Z,3.38
2023-01-17T04:01:11.696Z,3.72
2023-01-17T04:03:39.519Z,3.42
2023-01-17T04:06:07.681Z,3.25
2023-01-17T04:08:36.763Z,4.10
2023-01-17T04:11:04.616Z,4.13
2023-01-17T04:13:32.382Z,3.65
2023-01-17T04:16:00.375Z,3.45
2023-01-17T04:18:28.430Z,3.70
2023-01-17T04:20:56.176Z,3.60
2023-01-17T04:23:23.924Z,3.45
2023-01-17T04:25:52.998Z,3.50
2023-01-17T04:28:20.733Z,3.65
2023-01-17T04:30:48.487Z,3.20
2023-01-17T04:33:16.220Z,3.75
2023-01-17T04:35:43.954Z,3.92
2023-01-17T04:38:11.674Z,3.65
2023-01-17T04:40:39.453Z,3.65
2023-01-17T04:43:08.576Z,3.90
2023-01-17T04:45:36.474Z,3.92
2023-01-17T04:48:05.290Z,4.00
2023-01-17T04:50:33.506Z,4.38
2023-01-17T04:53:01.561Z,3.50
2023-01-17T04:55:29.290Z,3.17
2023-01-17T04:57:57.224Z,4.63
2023-01-17T05:00:26.498Z,3.15
2023-01-17T05:02:54.320Z,4.47
2023-01-17T05:05:22.084Z,3.88
2023-01-17T05:07:56.402Z,4.90
2023-01-17T05:10:24.589Z,4.70
2023-01-17T05:12:56.167Z,5.30
2023-01-17T05:15:24.751Z,4.32
2023-01-17T05:17:55.035Z,4.40
2023-01-17T05:20:24.866Z,5.40
2023-01-17T05:22:55.373Z,5.03
2023-01-17T05:25:24.072Z,4.57
2023-01-17T05:27:51.910Z,4.53
2023-01-17T05:30:20.318Z,4.97
2023-01-17T05:32:50.462Z,4.13
2023-01-17T05:35:22.025Z,4.97
2023-01-17T05:37:50.600Z,4.97
2023-01-17T05:40:18.900Z,4.80
2023-01-17T05:42:47.412Z,4.70
2023-01-17T05:45:16.981Z,4.78
2023-01-17T05:47:44.965Z,4.55
2023-01-17T05:50:13.401Z,4.28
2023-01-17T05:52:43.081Z,4.20
2023-01-17T05:55:11.224Z,4.00
2023-01-17T05:57:39.837Z,3.72
2023-01-17T06:00:09.108Z,3.97
2023-01-17T06:02:36.965Z,4.38
2023-01-17T06:05:05.431Z,3.60
2023-01-17T06:07:33.767Z,3.90
2023-01-17T06:10:02.969Z,3.83
2023-01-17T06:12:30.823Z,3.17
2023-01-17T06:14:58.624Z,3.85
2023-01-17T06:17:26.346Z,3.42
2023-01-17T06:19:54.074Z,3.53
2023-01-17T06:22:21.849Z,3.97
2023-01-17T06:24:49.674Z,3.60
2023-01-17T06:27:18.871Z,3.95
2023-01-17T06:29:46.593Z,3.20
2023-01-17T06:32:14.428Z,3.95
2023-01-17T06:34:42.190Z,3.47
2023-01-17T06:37:10.138Z,3.78
2023-01-17T06:39:37.908Z,3.95
2023-01-17T06:42:05.798Z,4.50
2023-01-17T06:44:34.967Z,4.03
2023-01-17T06:47:03.025Z,4.43
2023-01-17T06:49:30.882Z,3.70
2023-01-17T06:51:58.801Z,3.50
2023-01-17T06:54:26.965Z,3.42
2023-01-17T06:56:54.711Z,3.50
2023-01-17T06:59:22.498Z,4.10
2023-01-17T07:01:51.693Z,4.50
2023-01-17T07:04:19.432Z,3.78
2023-01-17T07:06:47.146Z,4.03
2023-01-17T07:09:14.911Z,3.58
2023-01-17T07:11:42.680Z,4.20
2023-01-17T07:14:14.416Z,3.08
2023-01-17T07:16:45.234Z,3.38
2023-01-17T07:19:14.951Z,3.20
2023-01-17T07:21:42.760Z,3.97
2023-01-17T07:24:10.918Z,4.28
2023-01-17T07:26:40.183Z,3.50
2023-01-17T07:29:08.127Z,4.43
2023-01-17T07:31:38.086Z,4.05
2023-01-17T07:34:05.950Z,4.40
2023-01-17T07:36:35.078Z,4.40
2023-01-17T07:39:04.870Z,4.53
2023-01-17T07:41:34.677Z,4.25
2023-01-17T07:44:06.086Z,4.85
2023-01-17T07:46:33.883Z,4.80
2023-01-17T07:49:01.743Z,5.13
2023-01-17T07:51:30.011Z,5.38
2023-01-17T07:53:59.095Z,6.13
2023-01-17T07:56:26.893Z,5.20
2023-01-17T07:58:54.629Z,4.70
2023-01-17T08:01:22.521Z,5.25
2023-01-17T08:03:54.778Z,6.10
2023-01-17T08:06:24.653Z,5.18
2023-01-17T08:08:55.013Z,5.32
2023-01-17T08:11:24.139Z,6.45
2023-01-17T08:13:57.236Z,5.70
2023-01-17T08:16:25.569Z,5.82
2023-01-17T08:18:53.757Z,7.05
2023-01-17T08:21:21.529Z,4.95
2023-01-17T08:23:49.804Z,5.50
2023-01-17T08:26:22.131Z,6.55
2023-01-17T08:28:56.352Z,6.57
2023-01-17T08:31:24.930Z,5.72
2023-01-17T08:33:52.844Z,5.55
2023-01-17T08:36:20.637Z,5.43
2023-01-17T08:38:52.596Z,4.70
2023-01-17T08:41:20.836Z,4.35
2023-01-17T08:43:49.088Z,4.00
2023-01-17T08:46:18.768Z,4.57
2023-01-17T08:48:46.652Z,3.83
2023-01-17T08:51:14.539Z,4.10
2023-01-17T08:53:42.444Z,4.13
2023-01-17T08:56:10.455Z,3.85
2023-01-17T08:58:38.235Z,3.70
2023-01-17T09:01:07.283Z,3.90
2023-01-17T09:03:38.404Z,3.60
2023-01-17T09:06:09.737Z,3.83
2023-01-17T09:08:38.362Z,3.20
2023-01-17T09:11:06.615Z,3.67
2023-01-17T09:13:34.433Z,3.55
2023-01-17T09:16:02.189Z,3.60
2023-01-17T09:18:31.059Z,3.58
2023-01-17T09:21:00.199Z,3.30
2023-01-17T09:23:30.750Z,3.25
2023-01-17T09:26:00.142Z,3.53
2023-01-17T09:30:56.201Z,3.05
2023-01-17T09:33:24.434Z,3.28
2023-01-17T09:35:52.236Z,3.10
2023-01-17T09:38:21.754Z,3.05
2023-01-17T09:40:49.972Z,2.80
2023-01-17T09:43:24.642Z,2.95
2023-01-17T09:45:52.891Z,2.88
2023-01-17T09:48:29.276Z,2.38
2023-01-17T09:51:01.245Z,2.85
2023-01-17T09:53:35.202Z,2.97
2023-01-17T09:56:07.498Z,2.55
2023-01-17T09:58:43.527Z,2.90
2023-01-17T10:01:18.967Z,3.03
2023-01-17T10:04:00.052Z,2.80
2023-01-17T10:06:43.911Z,2.80
2023-01-17T10:09:38.601Z,2.65
2023-01-17T10:12:19.675Z,2.80
2023-01-17T10:15:23.675Z,2.90
2023-01-17T10:18:01.319Z,2.60
2023-01-17T10:20:43.354Z,2.58
2023-01-17T10:23:33.777Z,2.65
2023-01-17T10:26:05.413Z,2.92
2023-01-17T10:28:39.180Z,2.55
2023-01-17T10:31:09.445Z,2.70
2023-01-17T10:33:42.338Z,2.70
2023-01-17T10:36:16.247Z,2.53
2023-01-17T10:38:47.894Z,2.60
2023-01-17T10:41:23.671Z,2.80
2023-01-17T10:43:59.777Z,2.70
2023-01-17T10:46:33.502Z,2.47
2023-01-17T10:49:02.236Z,2.95
2023-01-17T10:51:43.761Z,3.33
2023-01-17T10:54:24.335Z,3.13
2023-01-17T10:56:53.597Z,3.65
2023-01-17T11:01:54.046Z,2.60
2023-01-17T11:04:24.261Z,2.70
2023-01-17T11:07:12.020Z,2.55
2023-01-17T11:09:41.033Z,2.33
2023-01-17T11:12:21.653Z,2.30
2023-01-17T11:15:02.663Z,3.00
2023-01-17T11:17:31.411Z,2.92
2023-01-17T11:20:14.353Z,3.25
2023-01-17T11:22:45.636Z,2.25
2023-01-17T11:25:22.070Z,2.30
2023-01-17T11:28:02.528Z,2.15
2023-01-17T11:30:30.678Z,2.20
2023-01-17T11:32:59.819Z,2.50
2023-01-17T11:35:29.881Z,2.40
2023-01-17T11:38:15.899Z,2.22
2023-01-17T11:40:45.235Z,2.10
2023-01-17T11:43:25.535Z,2.88
2023-01-17T11:46:05.501Z,2.40
2023-01-17T11:48:38.568Z,2.15
2023-01-17T11:51:20.190Z,1.67
2023-01-17T11:53:49.135Z,2.05
2023-01-17T11:56:30.589Z,2.30
2023-01-17T11:59:19.091Z,2.30
2023-01-17T12:01:58.031Z,2.20
2023-01-17T12:04:30.733Z,1.85
2023-01-17T12:07:21.556Z,2.15
2023-01-17T12:10:00.123Z,1.83
2023-01-17T12:12:58.950Z,1.63
2023-01-17T12:15:51.943Z,1.88
2023-01-17T12:18:37.084Z,2.10
2023-01-17T12:21:16.621Z,1.73
2023-01-17T12:23:56.218Z,1.85
2023-01-17T12:26:33.528Z,1.98
2023-01-17T12:29:34.875Z,1.70
2023-01-17T12:32:24.783Z,1.90
2023-01-17T12:34:58.314Z,1.90
2023-01-17T12:37:34.377Z,1.90
2023-01-17T12:40:07.825Z,1.90
2023-01-17T12:42:40.639Z,1.70
2023-01-17T12:45:14.533Z,2.08
2023-01-17T12:47:47.868Z,2.38
2023-01-17T12:50:24.427Z,2.25
2023-01-17T12:52:59.840Z,1.83
2023-01-17T12:55:37.012Z,1.88
2023-01-17T12:58:08.923Z,1.98
2023-01-17T13:00:40.081Z,2.03
2023-01-17T13:03:16.425Z,1.70
2023-01-17T13:05:48.518Z,1.80
2023-01-17T13:08:23.083Z,1.80
2023-01-17T13:10:55.962Z,1.60
2023-01-17T13:13:26.189Z,1.85
2023-01-17T13:15:56.704Z,2.03
2023-01-17T13:18:29.849Z,2.53
2023-01-17T13:21:07.803Z,2.42
2023-01-17T13:23:53.448Z,3.42
2023-01-17T13:26:29.427Z,1.85
2023-01-17T13:29:08.841Z,1.90
2023-01-17T13:34:41.225Z,2.65
2023-01-17T13:37:27.379Z,2.22
2023-01-17T13:40:11.478Z,1.63
2023-01-17T13:42:50.849Z,2.70
2023-01-17T13:45:21.932Z,2.50
2023-01-17T13:47:49.811Z,1.75
2023-01-17T13:50:51.161Z,2.55
2023-01-17T13:53:58.890Z,3.00
2023-01-17T13:56:34.602Z,2.88
2023-01-17T13:59:28.319Z,3.70
2023-01-17T14:01:57.309Z,3.65
2023-01-17T14:04:26.403Z,2.20
2023-01-17T14:07:01.025Z,2.97
2023-01-17T14:09:41.863Z,2.10
2023-01-17T14:12:29.018Z,2.75
2023-01-17T14:15:00.548Z,2.35
2023-01-17T14:17:51.704Z,2.45
2023-01-17T14:20:44.419Z,3.55
2023-01-17T14:23:34.006Z,2.10
2023-01-17T14:26:18.247Z,2.95
2023-01-17T14:28:46.162Z,2.95
2023-01-17T14:31:16.169Z,2.92
2023-01-17T14:33:44.107Z,1.80
2023-01-17T14:36:21.920Z,2.13
2023-01-17T14:38:51.032Z,2.20
2023-01-17T14:41:21.448Z,1.83
2023-01-17T14:43:51.286Z,2.15
2023-01-17T14:46:26.144Z,2.80
2023-01-17T14:49:01.252Z,1.85
2023-01-17T14:51:30.082Z,3.00
2023-01-17T14:54:02.225Z,3.13
2023-01-17T14:56:31.584Z,2.85
2023-01-17T15:01:36.199Z,2.50
2023-01-17T15:04:04.824Z,3.03
2023-01-17T15:06:38.396Z,2.47
2023-01-17T15:09:18.045Z,2.72
2023-01-17T15:11:48.036Z,2.65
2023-01-17T15:14:21.013Z,2.40
2023-01-17T15:16:51.825Z,2.83
2023-01-17T15:19:21.747Z,2.85
2023-01-17T15:21:52.345Z,4.55
2023-01-17T15:24:23.932Z,2.60
2023-01-17T15:26:52.080Z,3.83
2023-01-17T15:29:25.220Z,3.55
2023-01-17T15:31:55.124Z,3.63
2023-01-17T15:34:28.727Z,6.47
2023-01-17T15:36:58.676Z,7.40
2023-01-17T15:39:30.789Z,6.55
2023-01-17T15:42:00.332Z,4.10
2023-01-17T15:44:46.821Z,2.47
2023-01-17T15:47:30.360Z,2.50
2023-01-17T15:49:58.813Z,5.35
2023-01-17T15:52:27.326Z,7.10
2023-01-17T15:55:00.152Z,6.70
2023-01-17T15:57:30.355Z,7.82
2023-01-17T16:00:05.731Z,11.63
2023-01-17T16:02:42.964Z,7.63
2023-01-17T16:05:43.434Z,5.60
2023-01-17T16:08:32.971Z,5.63
2023-01-17T16:11:06.107Z,4.95
2023-01-17T16:13:35.677Z,5.45
2023-01-17T16:18:38.602Z,11.80
2023-01-17T16:21:16.968Z,11.27
2023-01-17T16:23:44.662Z,7.07
2023-01-17T16:26:13.752Z,5.70
2023-01-17T16:28:41.535Z,4.85
2023-01-17T16:31:09.583Z,4.18
2023-01-17T16:33:37.514Z,6.82
2023-01-17T16:36:05.949Z,7.05
2023-01-17T16:38:33.850Z,6.10
2023-01-17T16:41:05.011Z,6.57
2023-01-17T16:43:34.159Z,6.82
2023-01-17T16:46:02.046Z,6.38
2023-01-17T16:48:29.825Z,7.05
2023-01-17T16:50:57.620Z,6.15
2023-01-17T16:53:27.353Z,6.18
2023-01-17T16:55:57.801Z,5.85
2023-01-17T16:58:25.773Z,5.05
2023-01-17T17:00:56.541Z,7.43
2023-01-17T17:03:24.349Z,7.53
2023-01-17T17:05:56.592Z,7.70
2023-01-17T17:08:25.139Z,7.68
2023-01-17T17:10:53.010Z,7.43
2023-01-17T17:13:21.022Z,8.05
2023-01-17T17:15:49.266Z,9.57
2023-01-17T17:18:19.195Z,8.45
2023-01-17T17:20:46.988Z,8.27
2023-01-17T17:23:15.005Z,6.65
2023-01-17T17:25:42.805Z,6.90
2023-01-17T17:28:11.656Z,7.00
2023-01-17T17:30:39.397Z,6.35
2023-01-17T17:33:07.185Z,5.88
2023-01-17T17:35:36.373Z,6.70
2023-01-17T17:38:06.538Z,5.97
2023-01-17T17:40:35.413Z,6.35
2023-01-17T17:43:03.338Z,7.68
2023-01-17T17:45:31.098Z,7.68
2023-01-17T17:47:58.913Z,8.52
2023-01-17T17:50:26.687Z,9.88
2023-01-17T17:52:55.818Z,11.73
2023-01-17T17:55:23.996Z,10.35
2023-01-17T17:57:52.134Z,9.88
2023-01-17T18:00:20.893Z,8.07
2023-01-17T18:02:48.680Z,8.98
2023-01-17T18:05:16.805Z,10.45
2023-01-17T18:07:44.626Z,9.75
2023-01-17T18:10:14.072Z,9.40
2023-01-17T18:12:41.895Z,10.75
2023-01-17T18:15:10.064Z,11.38
2023-01-17T18:17:37.921Z,12.30
2023-01-17T18:20:07.770Z,13.40
2023-01-17T18:22:35.744Z,10.65
2023-01-17T18:25:03.571Z,12.25
2023-01-17T18:27:32.732Z,11.52
2023-01-17T18:30:00.729Z,12.45
2023-01-17T18:32:28.506Z,14.18
2023-01-17T18:34:56.800Z,13.77
2023-01-17T18:37:24.785Z,13.27
2023-01-17T18:39:52.587Z,14.07
2023-01-17T18:42:22.475Z,16.60
2023-01-17T18:44:52.505Z,13.15
2023-01-17T18:47:20.489Z,10.82
2023-01-17T18:49:53.549Z,10.63
2023-01-17T18:52:21.540Z,9.93
2023-01-17T18:54:49.972Z,10.07
2023-01-17T18:57:17.801Z,10.47
2023-01-17T18:59:45.727Z,11.35
2023-01-17T19:02:15.616Z,11.20
2023-01-17T19:04:43.426Z,12.88
2023-01-17T19:07:12.627Z,11.90
2023-01-17T19:12:08.674Z,27.20
2023-01-17T19:14:36.432Z,21.48
2023-01-17T19:17:04.256Z,35.80
2023-01-17T19:19:33.490Z,29.48
2023-01-17T19:22:01.369Z,22.48
2023-01-17T19:24:29.154Z,21.13
2023-01-17T19:26:57.100Z,35.50
2023-01-17T19:29:26.740Z,26.52
2023-01-17T19:31:54.658Z,25.45
2023-01-17T19:34:22.503Z,19.58
2023-01-17T19:36:53.078Z,15.20
2023-01-17T19:39:22.433Z,15.63
2023-01-17T19:44:18.909Z,14.93
2023-01-17T19:46:47.117Z,21.88
2023-01-17T19:49:19.642Z,22.15
2023-01-17T19:51:47.461Z,22.35
2023-01-17T19:54:17.088Z,16.50
2023-01-17T19:56:44.983Z,14.75
2023-01-17T19:59:13.812Z,17.27
2023-01-17T20:01:41.822Z,18.27
2023-01-17T20:04:09.721Z,18.10
2023-01-17T20:06:37.527Z,17.27
2023-01-17T20:09:07.482Z,15.98
2023-01-17T20:11:36.893Z,16.58
2023-01-17T20:14:06.151Z,15.07
2023-01-17T20:16:36.625Z,15.38
2023-01-17T20:19:04.467Z,19.48
2023-01-17T20:21:33.040Z,24.23
2023-01-17T20:24:03.032Z,29.33
2023-01-17T20:26:35.421Z,16.63
2023-01-17T20:29:10.628Z,16.58
2023-01-17T20:31:39.597Z,13.77
2023-01-17T20:34:09.993Z,17.90
2023-01-17T20:36:38.256Z,22.02
2023-01-17T20:39:07.348Z,22.13
2023-01-17T20:41:36.997Z,22.52
2023-01-17T20:44:07.622Z,20.60
2023-01-17T20:46:40.457Z,18.25
2023-01-17T20:49:13.299Z,18.25
2023-01-17T20:51:41.375Z,17.42
2023-01-17T20:54:12.953Z,14.68
2023-01-17T20:56:41.626Z,16.00
2023-01-17T20:59:14.443Z,15.60
2023-01-17T21:01:46.985Z,14.63
2023-01-17T21:04:15.286Z,14.52
2023-01-17T21:06:43.784Z,13.43
2023-01-17T21:09:14.038Z,13.40
2023-01-17T21:11:41.938Z,12.73
2023-01-17T21:14:11.197Z,13.57
2023-01-17T21:16:39.064Z,13.48
2023-01-17T21:19:09.152Z,13.23
2023-01-17T21:21:36.947Z,15.90
2023-01-17T21:24:05.826Z,14.90
2023-01-17T21:26:33.615Z,13.40
2023-01-17T21:29:02.011Z,12.23
2023-01-17T21:31:34.736Z,12.63
2023-01-17T21:34:04.135Z,12.73
2023-01-17T21:39:04.565Z,13.38
2023-01-17T21:41:34.493Z,13.15
2023-01-17T21:44:04.149Z,13.10
2023-01-17T21:46:33.297Z,12.27
2023-01-17T21:49:02.998Z,12.73
2023-01-17T21:52:04.609Z,12.10
2023-01-17T21:54:50.344Z,12.25
2023-01-17T21:57:38.850Z,13.48
2023-01-17T22:00:09.630Z,12.95
2023-01-17T22:02:44.056Z,13.77
2023-01-17T22:05:12.189Z,13.95
2023-01-17T22:07:40.077Z,13.65
2023-01-17T22:10:08.567Z,13.25
2023-01-17T22:12:36.335Z,13.15
2023-01-17T22:15:04.381Z,12.88
2023-01-17T22:17:32.171Z,12.88
2023-01-17T22:20:01.389Z,13.13
2023-01-17T22:22:32.813Z,11.43
2023-01-17T22:25:00.596Z,12.30
2023-01-17T22:27:28.814Z,12.80
2023-01-17T22:29:56.710Z,12.38
2023-01-17T22:32:24.538Z,12.40
2023-01-17T22:34:52.293Z,10.88
2023-01-17T22:37:21.419Z,11.40
2023-01-17T22:39:49.171Z,13.00
2023-01-17T22:42:16.961Z,11.90
2023-01-17T22:44:45.651Z,12.38
2023-01-17T22:47:13.642Z,12.25
2023-01-17T22:49:41.738Z,11.27
2023-01-17T22:52:09.492Z,11.93
2023-01-17T22:54:38.665Z,11.48
2023-01-17T22:57:06.412Z,12.02
2023-01-17T22:59:35.317Z,12.20
2023-01-17T23:02:03.085Z,11.80
2023-01-17T23:04:30.986Z,11.40
2023-01-17T23:06:58.726Z,11.27
2023-01-17T23:09:26.527Z,11.40
2023-01-17T23:11:56.292Z,11.50
2023-01-17T23:14:25.787Z,12.10
2023-01-17T23:17:12.751Z,12.10
2023-01-17T23:19:42.874Z,11.43
2023-01-17T23:22:20.113Z,12.45
2023-01-17T23:24:51.059Z,12.80
2023-01-17T23:27:39.973Z,14.88
2023-01-17T23:30:10.696Z,13.13
2023-01-17T23:32:39.267Z,12.00
2023-01-17T23:35:07.767Z,13.50
2023-01-17T23:37:53.261Z,12.45
2023-01-17T23:40:21.089Z,11.73
2023-01-17T23:43:08.048Z,10.85
2023-01-17T23:45:37.116Z,12.95
2023-01-17T23:48:09.280Z,12.15
2023-01-17T23:50:37.565Z,11.85
2023-01-17T23:53:07.815Z,11.73
2023-01-17T23:55:36.458Z,11.57
2023-01-17T23:58:05.993Z,12.40
